createdAt,value
2018-09-05T00:02:15.447Z,14.80
2018-09-05T00:04:43.064Z,14.90
2018-09-05T00:07:10.925Z,14.80
2018-09-05T00:09:38.650Z,14.70
2018-09-05T00:12:06.325Z,14.70
2018-09-05T00:14:33.983Z,14.70
2018-09-05T00:17:01.749Z,14.60
2018-09-05T00:19:29.350Z,14.60
2018-09-05T00:21:56.958Z,14.50
2018-09-05T00:24:24.582Z,14.60
2018-09-05T00:26:52.271Z,14.60
2018-09-05T00:29:19.872Z,14.50
2018-09-05T00:31:47.461Z,14.50
2018-09-05T00:34:15.129Z,14.60
2018-09-05T00:36:42.759Z,14.50
2018-09-05T00:39:10.421Z,14.50
2018-09-05T00:41:38.064Z,14.60
2018-09-05T00:44:05.925Z,14.60
2018-09-05T00:46:33.648Z,14.70
2018-09-05T00:49:01.719Z,14.70
2018-09-05T00:51:29.317Z,14.60
2018-09-05T00:53:56.999Z,14.50
2018-09-05T00:56:24.632Z,14.50
2018-09-05T00:58:54.371Z,14.50
2018-09-05T01:01:22.041Z,14.50
2018-09-05T01:03:49.711Z,14.50
2018-09-05T01:06:17.317Z,14.60
2018-09-05T01:08:45.029Z,14.60
2018-09-05T01:11:12.647Z,14.50
2018-09-05T01:13:40.509Z,14.50
2018-09-05T01:16:08.365Z,14.60
2018-09-05T01:18:35.954Z,14.70
2018-09-05T01:21:03.621Z,14.70
2018-09-05T01:23:31.233Z,14.60
2018-09-05T01:25:58.854Z,14.50
2018-09-05T01:28:26.614Z,14.50
2018-09-05T01:30:54.322Z,14.60
2018-09-05T01:33:21.928Z,14.70
2018-09-05T01:35:54.197Z,14.70
2018-09-05T01:38:21.826Z,14.60
2018-09-05T01:40:50.929Z,14.50
2018-09-05T01:43:24.665Z,14.50
2018-09-05T01:45:52.447Z,14.40
2018-09-05T01:48:20.156Z,14.30
2018-09-05T01:50:47.850Z,14.20
2018-09-05T01:53:15.534Z,14.10
2018-09-05T01:55:43.197Z,14.10
2018-09-05T01:58:10.942Z,14.00
2018-09-05T02:00:38.768Z,14.00
2018-09-05T02:03:06.442Z,14.00
2018-09-05T02:05:34.232Z,14.00
2018-09-05T02:08:02.504Z,14.00
2018-09-05T02:10:30.966Z,14.00
2018-09-05T02:12:59.097Z,14.00
2018-09-05T02:15:26.782Z,13.90
2018-09-05T02:17:54.502Z,13.90
2018-09-05T02:20:22.417Z,13.90
2018-09-05T02:22:50.715Z,13.80
2018-09-05T02:25:18.491Z,13.80
2018-09-05T02:27:46.581Z,13.80
2018-09-05T02:30:14.276Z,13.80
2018-09-05T02:32:42.042Z,13.80
2018-09-05T02:35:09.781Z,13.80
2018-09-05T02:37:37.531Z,13.90
2018-09-05T02:40:05.967Z,13.70
2018-09-05T02:42:33.686Z,13.70
2018-09-05T02:45:01.494Z,13.70
2018-09-05T02:47:29.147Z,13.70
2018-09-05T02:49:56.871Z,13.60
2018-09-05T02:52:24.614Z,13.60
2018-09-05T02:54:52.354Z,13.50
2018-09-05T02:57:19.990Z,13.40
2018-09-05T02:59:47.688Z,13.40
2018-09-05T03:02:15.773Z,13.40
2018-09-05T03:04:43.437Z,13.40
2018-09-05T03:07:11.117Z,13.30
2018-09-05T03:09:38.864Z,13.40
2018-09-05T03:12:06.838Z,13.30
2018-09-05T03:14:34.505Z,13.30
2018-09-05T03:17:02.363Z,13.30
2018-09-05T03:19:30.139Z,13.40
2018-09-05T03:21:57.825Z,13.50
2018-09-05T03:24:25.491Z,13.50
2018-09-05T03:26:53.209Z,13.40
2018-09-05T03:29:20.942Z,13.40
2018-09-05T03:31:48.590Z,13.30
2018-09-05T03:34:16.262Z,13.20
2018-09-05T03:36:43.966Z,13.10
2018-09-05T03:39:12.030Z,13.10
2018-09-05T03:41:40.120Z,13.10
2018-09-05T03:44:08.045Z,13.00
2018-09-05T03:46:35.705Z,13.00
2018-09-05T03:49:04.776Z,13.00
2018-09-05T03:51:32.534Z,12.90
2018-09-05T03:54:00.270Z,12.90
2018-09-05T03:56:27.982Z,12.90
2018-09-05T03:58:55.706Z,12.80
2018-09-05T04:01:23.414Z,12.90
2018-09-05T04:03:51.397Z,12.80
2018-09-05T04:06:20.643Z,12.90
2018-09-05T04:08:49.434Z,12.90
2018-09-05T04:11:17.197Z,12.80
2018-09-05T04:13:44.941Z,12.80
2018-09-05T04:16:12.845Z,12.80
2018-09-05T04:18:40.543Z,12.80
2018-09-05T04:21:08.285Z,12.70
2018-09-05T04:23:39.884Z,12.80
2018-09-05T04:26:07.610Z,12.90
2018-09-05T04:28:35.279Z,12.80
2018-09-05T04:31:03.088Z,12.70
2018-09-05T04:33:30.772Z,12.70
2018-09-05T04:35:58.570Z,12.60
2018-09-05T04:38:26.322Z,12.70
2018-09-05T04:40:53.998Z,12.70
2018-09-05T04:43:21.969Z,12.60
2018-09-05T04:45:49.757Z,12.60
2018-09-05T04:48:17.438Z,12.60
2018-09-05T04:50:45.377Z,12.60
2018-09-05T04:53:13.081Z,12.60
2018-09-05T04:55:40.729Z,12.70
2018-09-05T04:58:08.459Z,12.60
2018-09-05T05:00:36.138Z,12.60
2018-09-05T05:03:03.873Z,12.60
2018-09-05T05:05:31.611Z,12.60
2018-09-05T05:07:59.342Z,12.60
2018-09-05T05:10:27.002Z,12.60
2018-09-05T05:12:54.664Z,12.70
2018-09-05T05:15:22.354Z,12.80
2018-09-05T05:17:50.018Z,12.90
2018-09-05T05:20:17.831Z,13.00
2018-09-05T05:22:45.574Z,13.10
2018-09-05T05:25:13.238Z,13.10
2018-09-05T05:27:40.996Z,13.20
2018-09-05T05:30:08.750Z,13.30
2018-09-05T05:32:36.551Z,13.40
2018-09-05T05:35:04.142Z,13.50
2018-09-05T05:37:31.891Z,13.60
2018-09-05T05:40:04.196Z,13.70
2018-09-05T05:42:32.232Z,13.80
2018-09-05T05:45:00.378Z,14.10
2018-09-05T05:47:28.170Z,14.40
2018-09-05T05:49:55.886Z,14.60
2018-09-05T05:52:23.545Z,14.80
2018-09-05T05:54:51.287Z,15.20
2018-09-05T05:57:19.054Z,15.30
2018-09-05T05:59:46.694Z,15.60
2018-09-05T06:02:14.488Z,15.90
2018-09-05T06:04:42.302Z,16.20
2018-09-05T06:07:10.009Z,16.60
2018-09-05T06:09:38.066Z,17.10
2018-09-05T06:12:06.155Z,17.70
2018-09-05T06:14:33.890Z,18.30
2018-09-05T06:17:01.607Z,18.60
2018-09-05T06:19:29.226Z,19.00
2018-09-05T06:21:57.107Z,19.70
2018-09-05T06:24:25.246Z,19.70
2018-09-05T06:26:52.941Z,20.00
2018-09-05T06:29:20.680Z,20.40
2018-09-05T06:31:48.649Z,20.80
2018-09-05T06:34:16.612Z,20.40
2018-09-05T06:36:44.401Z,20.20
2018-09-05T06:39:12.395Z,20.30
2018-09-05T06:41:39.945Z,20.60
2018-09-05T06:44:07.941Z,21.00
2018-09-05T06:46:35.606Z,21.20
2018-09-05T06:49:03.406Z,21.70
2018-09-05T06:51:31.091Z,22.40
2018-09-05T06:53:58.742Z,23.00
2018-09-05T06:56:26.394Z,23.40
2018-09-05T06:58:54.233Z,23.10
2018-09-05T07:01:21.938Z,23.50
2018-09-05T07:03:50.013Z,24.10
2018-09-05T07:06:17.681Z,24.40
2018-09-05T07:08:45.557Z,24.60
2018-09-05T07:11:13.252Z,25.00
2018-09-05T07:13:40.910Z,25.20
2018-09-05T07:16:08.805Z,25.20
2018-09-05T07:18:36.565Z,25.10
2018-09-05T07:21:07.113Z,25.50
2018-09-05T07:23:35.526Z,25.60
2018-09-05T07:26:03.237Z,25.90
2018-09-05T07:28:31.009Z,26.60
2018-09-05T07:30:58.870Z,26.80
2018-09-05T07:33:26.430Z,26.30
2018-09-05T07:35:54.366Z,26.50
2018-09-05T07:38:22.066Z,26.00
2018-09-05T07:40:49.829Z,26.70
2018-09-05T07:43:17.748Z,27.40
2018-09-05T07:45:45.386Z,28.10
2018-09-05T07:48:13.325Z,28.10
2018-09-05T07:50:41.061Z,28.50
2018-09-05T07:53:08.734Z,28.70
2018-09-05T07:55:36.390Z,28.40
2018-09-05T07:58:04.729Z,28.00
2018-09-05T08:00:32.466Z,28.40
2018-09-05T08:03:00.348Z,29.00
2018-09-05T08:05:28.006Z,29.70
2018-09-05T08:07:55.694Z,30.10
2018-09-05T08:10:23.369Z,30.30
2018-09-05T08:12:51.046Z,30.80
2018-09-05T08:15:18.796Z,31.00
2018-09-05T08:17:46.518Z,31.30
2018-09-05T08:20:14.367Z,30.70
2018-09-05T08:22:42.338Z,29.50
2018-09-05T08:25:10.009Z,29.40
2018-09-05T08:27:37.649Z,29.40
2018-09-05T08:30:05.479Z,29.70
2018-09-05T08:32:33.111Z,29.40
2018-09-05T08:35:00.926Z,29.80
2018-09-05T08:37:28.707Z,29.40
2018-09-05T08:39:56.142Z,29.90
2018-09-05T08:42:23.994Z,30.50
2018-09-05T08:44:51.847Z,30.50
2018-09-05T08:47:19.300Z,30.50
2018-09-05T08:49:46.919Z,31.20
2018-09-05T08:52:14.633Z,31.30
2018-09-05T08:54:42.302Z,31.50
2018-09-05T08:57:09.954Z,31.40
2018-09-05T08:59:37.764Z,31.00
2018-09-05T09:02:05.523Z,31.00
2018-09-05T09:04:33.422Z,31.10
2018-09-05T09:07:01.086Z,31.80
2018-09-05T09:09:28.749Z,31.70
2018-09-05T09:11:56.447Z,32.00
2018-09-05T09:14:24.133Z,32.90
2018-09-05T09:16:51.879Z,33.00
2018-09-05T09:19:19.626Z,33.20
2018-09-05T09:21:47.324Z,33.10
2018-09-05T09:24:15.013Z,32.80
2018-09-05T09:26:42.846Z,32.20
2018-09-05T09:29:10.529Z,32.60
2018-09-05T09:31:38.193Z,32.90
2018-09-05T09:34:05.933Z,32.60
2018-09-05T09:36:33.642Z,32.90
2018-09-05T09:39:01.473Z,32.60
2018-09-05T09:41:29.165Z,32.50
2018-09-05T09:43:56.861Z,33.00
2018-09-05T09:46:24.594Z,32.50
2018-09-05T09:48:52.335Z,32.10
2018-09-05T09:51:22.293Z,31.90
2018-09-05T09:53:50.862Z,31.60
2018-09-05T09:56:19.672Z,32.00
2018-09-05T09:58:47.402Z,32.10
2018-09-05T10:01:20.887Z,32.20
2018-09-05T10:03:54.372Z,32.50
2018-09-05T10:06:27.902Z,33.60
2018-09-05T10:09:01.374Z,34.10
2018-09-05T10:11:34.814Z,33.70
2018-09-05T10:14:08.478Z,33.40
2018-09-05T10:16:39.688Z,33.30
2018-09-05T10:19:08.210Z,33.30
2018-09-05T10:21:35.929Z,33.50
2018-09-05T10:24:03.598Z,33.20
2018-09-05T10:26:31.246Z,33.10
2018-09-05T10:28:58.877Z,33.50
2018-09-05T10:31:26.538Z,33.20
2018-09-05T10:33:54.242Z,32.30
2018-09-05T10:36:21.905Z,32.70
2018-09-05T10:38:49.590Z,32.90
2018-09-05T10:41:17.314Z,33.20
2018-09-05T10:43:45.094Z,33.30
2018-09-05T10:46:13.000Z,33.30
2018-09-05T10:48:47.498Z,32.90
2018-09-05T10:51:16.570Z,33.10
2018-09-05T10:53:44.352Z,32.80
2018-09-05T10:56:12.062Z,32.80
2018-09-05T10:58:39.748Z,32.70
2018-09-05T11:01:07.352Z,32.10
2018-09-05T11:03:35.025Z,32.00
2018-09-05T11:06:02.769Z,31.60
2018-09-05T11:08:30.455Z,31.10
2018-09-05T11:10:58.259Z,30.90
2018-09-05T11:13:25.854Z,30.70
2018-09-05T11:15:53.561Z,30.90
2018-09-05T11:18:21.834Z,30.80
2018-09-05T11:20:49.676Z,30.00
2018-09-05T11:23:17.525Z,29.50
2018-09-05T11:25:45.265Z,29.10
2018-09-05T11:28:13.082Z,28.70
2018-09-05T11:30:40.899Z,28.40
2018-09-05T11:33:08.575Z,27.90
2018-09-05T11:35:36.268Z,27.80
2018-09-05T11:38:03.950Z,27.60
2018-09-05T11:40:31.692Z,27.80
2018-09-05T11:42:59.363Z,28.00
2018-09-05T11:45:27.057Z,27.80
2018-09-05T11:47:54.769Z,27.60
2018-09-05T11:50:22.554Z,27.50
2018-09-05T11:52:50.237Z,27.50
2018-09-05T11:55:18.041Z,27.70
2018-09-05T11:57:45.937Z,27.70
2018-09-05T12:00:13.913Z,27.50
2018-09-05T12:02:49.355Z,27.50
2018-09-05T12:05:23.734Z,27.50
2018-09-05T12:07:52.287Z,27.60
2018-09-05T12:10:20.906Z,27.30
2018-09-05T12:12:49.876Z,27.30
2018-09-05T12:15:18.731Z,27.40
2018-09-05T12:17:47.552Z,27.50
2018-09-05T12:20:44.212Z,27.70
2018-09-05T12:23:13.962Z,27.80
2018-09-05T12:25:46.101Z,27.70
2018-09-05T12:47:03.710Z,27.80
2018-09-05T12:49:35.647Z,27.90
2018-09-05T12:52:29.053Z,27.90
2018-09-05T12:55:05.756Z,27.80
2018-09-05T12:57:33.900Z,28.00
2018-09-05T13:00:02.230Z,28.00
2018-09-05T13:02:30.513Z,28.00
2018-09-05T13:05:12.146Z,28.00
2018-09-05T13:07:45.109Z,28.10
2018-09-05T13:10:13.381Z,28.10
2018-09-05T13:12:46.392Z,28.10
2018-09-05T13:15:14.620Z,27.90
2018-09-05T13:17:47.609Z,27.90
2018-09-05T13:20:15.777Z,27.90
2018-09-05T13:26:10.666Z,28.10
2018-09-05T13:28:39.148Z,27.90
2018-09-05T13:33:40.442Z,27.50
2018-09-05T13:36:08.692Z,27.30
2018-09-05T13:38:37.209Z,27.40
2018-09-05T13:41:05.316Z,27.50
2018-09-05T13:43:33.968Z,27.50
2018-09-05T13:46:04.332Z,27.30
2018-09-05T13:48:32.572Z,27.20
2018-09-05T13:51:03.020Z,27.10
2018-09-05T13:53:31.281Z,27.00
2018-09-05T13:56:04.443Z,26.90
2018-09-05T13:58:32.868Z,27.00
2018-09-05T14:01:06.814Z,26.90
2018-09-05T14:03:34.898Z,26.70
2018-09-05T14:06:07.721Z,26.80
2018-09-05T14:08:35.781Z,27.00
2018-09-05T14:13:42.421Z,27.20
2018-09-05T14:16:11.446Z,27.30
2018-09-05T14:18:39.524Z,27.20
2018-09-05T14:21:12.968Z,27.30
2018-09-05T14:23:41.246Z,27.30
2018-09-05T14:28:42.267Z,27.30
2018-09-05T14:31:10.339Z,27.40
2018-09-05T14:33:39.493Z,27.40
2018-09-05T14:36:09.703Z,27.60
2018-09-05T14:38:41.442Z,27.60
2018-09-05T14:41:09.456Z,27.60
2018-09-05T14:43:42.469Z,27.60
2018-09-05T14:46:10.697Z,27.60
2018-09-05T14:48:38.794Z,27.50
2018-09-05T14:51:06.928Z,27.50
2018-09-05T14:53:35.240Z,27.50
2018-09-05T14:56:03.288Z,27.60
2018-09-05T14:58:31.715Z,27.70
2018-09-05T15:00:59.848Z,27.80
2018-09-05T15:03:27.873Z,27.70
2018-09-05T15:05:55.891Z,27.70
2018-09-05T15:08:24.174Z,27.60
2018-09-05T15:10:52.265Z,27.50
2018-09-05T15:13:20.336Z,27.40
2018-09-05T15:15:48.463Z,27.30
2018-09-05T15:18:16.516Z,27.40
2018-09-05T15:20:44.538Z,27.40
2018-09-05T15:23:12.661Z,27.30
2018-09-05T15:25:42.065Z,27.50
2018-09-05T15:28:10.062Z,27.40
2018-09-05T15:30:38.162Z,27.40
2018-09-05T15:33:06.703Z,27.30
2018-09-05T15:35:34.996Z,27.40
2018-09-05T15:38:03.279Z,27.30
2018-09-05T15:40:31.496Z,27.30
2018-09-05T15:43:03.250Z,27.30
2018-09-05T15:45:31.776Z,27.20
2018-09-05T15:47:59.892Z,27.10
2018-09-05T15:50:32.655Z,27.10
2018-09-05T15:53:00.687Z,27.00
2018-09-05T15:58:01.511Z,27.00
2018-09-05T16:00:29.776Z,27.00
2018-09-05T16:02:57.955Z,27.10
2018-09-05T16:05:26.671Z,27.10
2018-09-05T16:07:54.767Z,27.10
2018-09-05T16:10:22.880Z,27.00
2018-09-05T16:12:53.192Z,27.00
2018-09-05T16:15:25.372Z,26.90
2018-09-05T16:17:53.316Z,26.90
2018-09-05T16:20:21.432Z,26.90
2018-09-05T16:22:50.100Z,26.90
2018-09-05T16:25:19.305Z,26.90
2018-09-05T16:27:48.248Z,26.80
2018-09-05T16:49:00.684Z,26.50
2018-09-05T16:51:30.001Z,26.40
2018-09-05T16:53:58.694Z,26.40
2018-09-05T17:12:26.896Z,25.80
2018-09-05T17:14:59.918Z,25.70
2018-09-05T17:17:32.055Z,25.70
2018-09-05T17:20:00.996Z,25.60
2018-09-05T17:22:29.699Z,25.40
2018-09-05T17:25:00.171Z,25.30
2018-09-05T17:27:29.303Z,25.30
2018-09-05T17:29:58.061Z,25.10
2018-09-05T17:35:39.575Z,24.80
2018-09-05T17:38:08.703Z,24.60
2018-09-05T17:40:37.453Z,24.50
2018-09-05T17:43:06.757Z,24.40
2018-09-05T17:48:50.459Z,24.10
2018-09-05T17:51:19.092Z,23.90
2018-09-05T17:53:47.826Z,23.70
2018-09-05T17:56:17.535Z,23.60
2018-09-05T17:58:46.183Z,23.50
2018-09-05T18:01:18.669Z,23.40
2018-09-05T18:03:48.285Z,23.30
2018-09-05T18:06:16.882Z,23.30
2018-09-05T18:08:48.628Z,23.20
2018-09-05T18:11:17.291Z,23.20
2018-09-05T18:13:45.565Z,23.20
2018-09-05T18:16:14.787Z,23.10
2018-09-05T18:18:43.487Z,23.00
2018-09-05T18:21:39.322Z,22.90
2018-09-05T18:24:07.768Z,22.70
2018-09-05T18:26:36.021Z,22.60
2018-09-05T18:29:04.336Z,22.50
2018-09-05T18:31:33.160Z,22.40
2018-09-05T18:34:01.632Z,22.30
2018-09-05T18:36:30.201Z,22.10
2018-09-05T18:57:42.662Z,21.50
2018-09-05T19:00:11.433Z,21.30
2018-09-05T19:02:40.264Z,21.30
2018-09-05T19:05:09.844Z,21.20
2018-09-05T19:07:38.972Z,21.10
2018-09-05T19:10:07.660Z,21.10
2018-09-05T19:12:37.126Z,21.20
2018-09-05T19:15:07.727Z,21.10
2018-09-05T19:17:36.645Z,21.00
2018-09-05T19:20:05.566Z,20.80
2018-09-05T19:22:33.621Z,20.60
2018-09-05T19:25:03.016Z,20.40
2018-09-05T19:27:31.255Z,20.20
2018-09-05T19:29:59.439Z,19.90
2018-09-05T19:32:27.523Z,19.70
2018-09-05T19:34:55.629Z,19.60
2018-09-05T19:37:25.263Z,19.50
2018-09-05T19:39:54.789Z,19.40
2018-09-05T19:42:22.927Z,19.40
2018-09-05T19:44:51.277Z,19.40
2018-09-05T19:47:19.391Z,19.30
2018-09-05T19:49:47.551Z,19.20
2018-09-05T19:52:17.289Z,19.10
2018-09-05T19:54:45.548Z,19.00
2018-09-05T19:57:13.620Z,19.00
2018-09-05T19:59:41.887Z,18.90
2018-09-05T20:02:10.009Z,18.80
2018-09-05T20:04:38.109Z,18.80
2018-09-05T20:07:06.392Z,18.90
2018-09-05T20:09:34.588Z,18.80
2018-09-05T20:12:02.855Z,18.80
2018-09-05T20:14:31.045Z,18.90
2018-09-05T20:16:59.190Z,18.80
2018-09-05T20:19:27.615Z,18.80
2018-09-05T20:21:56.208Z,19.00
2018-09-05T20:24:23.990Z,19.10
2018-09-05T20:26:51.763Z,19.10
2018-09-05T20:29:19.491Z,19.30
2018-09-05T20:31:47.194Z,19.40
2018-09-05T20:34:14.930Z,19.40
2018-09-05T20:36:42.629Z,19.50
2018-09-05T20:39:11.388Z,19.60
2018-09-05T20:41:39.355Z,19.60
2018-09-05T20:44:07.085Z,19.70
2018-09-05T20:46:35.222Z,19.80
2018-09-05T20:49:02.946Z,20.10
2018-09-05T20:51:30.672Z,20.20
2018-09-05T20:53:58.645Z,20.30
2018-09-05T20:56:26.442Z,20.30
2018-09-05T20:58:54.257Z,20.30
2018-09-05T21:01:22.113Z,20.50
2018-09-05T21:03:50.115Z,20.40
2018-09-05T21:06:17.798Z,20.40
2018-09-05T21:08:45.555Z,20.30
2018-09-05T21:11:13.386Z,20.20
2018-09-05T21:13:41.126Z,20.30
2018-09-05T21:16:08.909Z,20.30
2018-09-05T21:18:37.169Z,20.20
2018-09-05T21:21:11.126Z,19.90
2018-09-05T21:23:38.769Z,19.80
2018-09-05T21:26:06.479Z,19.60
2018-09-05T21:28:34.225Z,19.40
2018-09-05T21:31:01.957Z,19.20
2018-09-05T21:33:29.604Z,19.10
2018-09-05T21:36:01.318Z,18.90
2018-09-05T21:38:28.993Z,18.80
2018-09-05T21:40:56.710Z,18.60
2018-09-05T21:43:24.377Z,18.40
2018-09-05T21:45:52.158Z,18.20
2018-09-05T21:48:19.894Z,18.10
2018-09-05T21:50:47.505Z,17.90
2018-09-05T21:53:15.193Z,17.70
2018-09-05T21:55:42.934Z,17.70
2018-09-05T21:58:10.681Z,17.60
2018-09-05T22:00:38.397Z,17.60
2018-09-05T22:03:06.077Z,17.50
2018-09-05T22:05:33.809Z,17.30
2018-09-05T22:08:01.814Z,17.20
2018-09-05T22:10:29.534Z,17.10
2018-09-05T22:12:57.181Z,17.10
2018-09-05T22:15:24.912Z,17.20
2018-09-05T22:17:52.573Z,17.10
2018-09-05T22:20:20.217Z,17.10
2018-09-05T22:22:47.845Z,17.10
2018-09-05T22:25:15.582Z,17.00
2018-09-05T22:27:43.270Z,17.00
2018-09-05T22:30:10.919Z,17.00
2018-09-05T22:32:38.635Z,16.90
2018-09-05T22:35:06.377Z,16.90
2018-09-05T22:37:34.059Z,16.90
2018-09-05T22:40:01.759Z,16.80
2018-09-05T22:42:29.405Z,16.70
2018-09-05T22:45:14.534Z,16.60
2018-09-05T22:48:41.729Z,16.60
2018-09-05T22:52:00.177Z,16.50
2018-09-05T22:55:05.043Z,16.40
2018-09-05T22:57:54.917Z,16.40
2018-09-05T23:02:47.761Z,16.40
2018-09-05T23:05:35.974Z,16.40
2018-09-05T23:08:43.122Z,16.40
2018-09-05T23:11:28.206Z,16.30
2018-09-05T23:14:15.414Z,16.20
2018-09-05T23:21:07.407Z,16.10
2018-09-05T23:24:04.817Z,15.90
2018-09-05T23:26:32.546Z,15.70
2018-09-05T23:29:00.263Z,15.70
2018-09-05T23:31:28.075Z,15.70
2018-09-05T23:33:56.006Z,15.70
2018-09-05T23:36:24.087Z,15.70
2018-09-05T23:38:51.828Z,15.70
2018-09-05T23:41:19.650Z,15.60
2018-09-05T23:43:47.322Z,15.60
2018-09-05T23:46:15.000Z,15.60
2018-09-05T23:48:42.699Z,15.60
2018-09-05T23:51:10.394Z,15.60
2018-09-05T23:53:38.067Z,15.60
2018-09-05T23:56:05.778Z,15.60
2018-09-05T23:58:33.497Z,15.60
